Latest Weather Observations for Centre Island

IDD60801

Issued at 10:01 pm CST Monday 20 May 2019 (issued every 10 minutes, with the page automatically refreshed every 10 minutes)

About weather observations | Map of weather stations | Latest weather observations for NT | Other Formats
Station Details ID: 014703 Name: CENTRE ISLAND Lat: -15.74 Lon: 136.82 Height: 12.2 m
Data from the previous 72 hours. | See also: Recent months at Centre Island
Date/Time
CST
Temp
°C
App
Temp
°C
Dew
Point
°C
Rel
Hum
%
Delta-T
°C
Wind Press
QNH
hPa
Press
MSL
hPa
Rain since
9am
mm
Dir  Spd
km/h
Gust
km/h
Spd
kts
Gust
kts
20/10:00pm 25.6 27.7 23.8 90 1.2 ENE 19 22 10 12 1016.5 1016.5 0.0
20/09:30pm 25.6 27.5 23.8 90 1.2 ENE 20 24 11 13 1016.5 1016.5 0.0
20/09:00pm 25.8 27.8 24.0 90 1.2 ENE 20 26 11 14 1016.4 1016.4 0.0
20/08:30pm 25.7 27.2 23.7 89 1.4 ENE 22 26 12 14 1016.1 1016.1 0.0
20/08:00pm 25.8 27.0 23.8 89 1.4 E 24 28 13 15 1015.9 1015.9 0.0
20/07:30pm 25.8 26.9 23.7 88 1.4 ENE 24 28 13 15 1015.6 1015.6 0.0
20/07:00pm 25.9 27.3 23.6 87 1.6 E 22 28 12 15 1015.3 1015.3 0.0
20/06:30pm 26.0 27.8 23.3 85 1.8 E 19 22 10 12 1014.9 1014.9 0.0
20/06:00pm 26.1 28.1 23.0 83 2.1 E 17 19 9 10 1014.7 1014.7 0.0
20/05:30pm 26.9 28.4 22.7 78 2.8 E 19 22 10 12 1014.5 1014.5 0.0
20/05:00pm 27.1 28.6 22.7 77 3.0 ENE 19 24 10 13 1014.4 1014.4 0.0
20/04:30pm 27.9 28.7 22.4 72 3.7 E 22 26 12 14 1014.1 1014.1 0.0
20/04:00pm 28.5 30.8 22.7 71 3.9 E 15 19 8 10 1014.0 1014.0 0.0
20/03:30pm 28.5 30.5 22.3 69 4.2 E 15 20 8 11 1014.0 1014.0 0.0
20/03:00pm 29.1 30.7 22.8 69 4.3 ESE 19 20 10 11 1014.3 1014.3 0.0
20/02:30pm 28.2 29.2 22.2 70 4.0 ESE 20 24 11 13 1014.5 1014.5 0.0
20/02:00pm 28.3 28.6 22.3 70 4.1 ESE 24 28 13 15 1014.7 1014.7 0.0
20/01:30pm 27.9 27.9 21.7 69 4.1 ESE 24 28 13 15 1015.2 1015.2 0.0
20/01:00pm 28.2 28.3 21.2 65 4.7 ESE 22 26 12 14 1015.5 1015.5 0.0
20/12:30pm 28.2 27.2 20.5 63 5.1 SE 26 30 14 16 1015.8 1015.8 0.0
20/12:00pm 27.5 25.7 20.3 65 4.7 SE 30 35 16 19 1016.2 1016.2 0.0
20/11:30am 27.8 26.0 19.6 61 5.3 SE 28 32 15 17 1016.4 1016.4 0.0
20/11:00am 27.6 25.6 19.1 59 5.5 ESE 28 32 15 17 1016.6 1016.6 0.0
20/10:30am 27.7 25.5 18.7 58 5.8 ESE 28 35 15 19 1016.7 1016.7 0.0
20/10:00am 27.3 25.3 18.3 58 5.7 ESE 26 30 14 16 1016.8 1016.8 0.0
20/09:30am 27.3 27.6 19.6 62 5.0 SE 17 20 9 11 1016.8 1016.8 0.0
20/09:00am 26.6 26.8 20.2 68 4.2 SSE 19 24 10 13 1016.7 1016.7 0.0
20/08:30am 25.5 27.1 21.4 78 2.7 SSE 15 17 8 9 1016.4 1016.4 0.0
20/08:00am 25.1 26.1 21.8 82 2.2 SSE 19 20 10 11 1016.2 1016.2 0.0
20/07:30am 24.4 26.0 22.1 87 1.5 SSE 17 19 9 10 1016.0 1016.0 0.0
20/07:00am 23.8 24.9 22.4 92 0.9 SSE 20 24 11 13 1015.8 1015.8 0.0
20/06:30am 23.9 25.9 22.9 94 0.7 S 17 20 9 11 1015.5 1015.5 0.0
20/06:00am 23.9 26.8 23.2 96 0.5 SSE 13 15 7 8 1015.1 1015.1 0.0
20/05:30am 23.8 25.5 23.1 96 0.5 S 19 20 10 11 1014.9 1014.9 0.0
20/05:00am 24.0 25.9 23.5 97 0.3 S 19 20 10 11 1014.7 1014.7 0.0
20/04:30am 24.1 26.1 23.6 97 0.3 S 19 22 10 12 1014.7 1014.7 0.0
20/04:00am 24.1 25.9 23.2 95 0.6 SSE 19 20 10 11 1014.6 1014.6 0.0
20/03:30am 24.4 26.7 23.4 94 0.7 S 17 19 9 10 1014.6 1014.6 0.0
20/03:00am 24.9 27.3 23.7 93 0.8 SSE 17 20 9 11 1014.6 1014.6 0.0
20/02:30am 24.9 28.5 23.7 93 0.8 SSE 11 13 6 7 1014.8 1014.8 0.0
20/02:00am 24.9 28.6 23.3 91 1.1 SE 9 11 5 6 1015.1 1015.1 0.0
20/01:30am 24.7 28.5 22.8 89 1.3 ESE 7 9 4 5 1015.2 1015.2 0.0
20/01:00am 24.8 28.2 22.7 88 1.4 E 9 11 5 6 1015.4 1015.4 0.0
20/12:30am 25.0 28.1 22.9 88 1.4 ENE 11 13 6 7 1015.4 1015.4 0.0
20/12:00am 25.2 27.6 22.9 87 1.6 ENE 15 19 8 10 1015.5 1015.5 0.0
 
Date/Time
CST
Temp
°C
App
Temp
°C
Dew
Point
°C
Rel
Hum
%
Delta-T
°C
Wind Press
QNH
hPa
Press
MSL
hPa
Rain since
9am
mm
Dir  Spd
km/h
Gust
km/h
Spd
kts
Gust
kts
19/11:30pm 25.4 26.9 23.1 87 1.6 ENE 20 24 11 13 1016.0 1016.0 0.0
19/11:00pm 25.5 26.8 23.4 88 1.4 NE 22 26 12 14 1016.2 1016.2 0.0
19/10:30pm 25.6 26.5 23.3 87 1.6 NE 24 32 13 17 1016.2 1016.2 0.0
19/10:00pm 25.8 25.9 23.3 86 1.7 NE 28 35 15 19 1016.4 1016.4 0.0
19/09:30pm 25.7 27.2 23.0 85 1.8 NE 20 24 11 13 1016.4 1016.4 0.0
19/09:00pm 25.8 27.1 22.7 83 2.1 NE 20 26 11 14 1016.4 1016.4 0.0
19/08:30pm 25.9 27.3 22.6 82 2.2 ENE 19 24 10 13 1016.4 1016.4 0.0
19/08:00pm 25.9 27.2 22.4 81 2.4 ENE 19 22 10 12 1016.0 1016.0 0.0
19/07:30pm 25.8 28.2 22.9 84 2.0 ENE 15 19 8 10 1015.7 1015.7 0.0
19/07:00pm 25.8 27.7 22.7 83 2.1 ENE 17 20 9 11 1015.2 1015.2 0.0
19/06:30pm 26.0 27.3 22.7 82 2.2 ENE 20 26 11 14 1015.0 1015.0 0.0
19/06:00pm 26.4 26.5 22.5 79 2.6 ENE 26 30 14 16 1014.8 1014.8 0.0
19/05:30pm 27.0 27.4 22.4 76 3.1 E 24 30 13 16 1014.5 1014.5 0.0
19/05:00pm 27.7 28.5 22.4 73 3.6 E 22 26 12 14 1014.2 1014.2 0.0
19/04:30pm 28.3 29.4 22.3 70 4.1 ENE 20 24 11 13 1013.9 1013.9 0.0
19/04:00pm 29.0 29.9 22.0 66 4.7 ENE 20 26 11 14 1013.6 1013.6 0.0
19/03:30pm 29.3 30.7 22.5 67 4.6 ENE 19 24 10 13 1013.5 1013.5 0.0
19/03:00pm 29.3 30.7 22.5 67 4.6 E 19 22 10 12 1013.6 1013.6 0.0
19/02:30pm 29.6 30.9 22.6 66 4.8 E 20 24 11 13 1013.8 1013.8 0.0
19/02:00pm 29.7 30.7 22.9 67 4.6 E 22 26 12 14 1014.0 1014.0 0.0
19/01:30pm 30.0 30.7 22.9 65 4.9 ESE 24 28 13 15 1014.2 1014.2 0.0
19/01:00pm 29.2 28.9 21.9 64 4.9 ESE 26 28 14 15 1014.6 1014.6 0.0
19/12:30pm 29.4 28.1 21.4 62 5.4 ESE 30 33 16 18 1015.1 1015.1 0.0
19/12:00pm 29.2 28.3 21.4 63 5.2 ESE 28 32 15 17 1015.5 1015.5 0.0
19/11:30am 29.0 28.9 21.5 64 5.0 ESE 24 28 13 15 1015.9 1015.9 0.0
19/11:00am 29.0 29.8 21.7 64 4.9 SE 20 26 11 14 1016.5 1016.5 0.0
19/10:30am 28.4 29.6 21.4 66 4.7 SE 17 20 9 11 1016.6 1016.6 0.0
19/10:00am 27.4 29.7 22.1 73 3.6 SE 13 17 7 9 1016.6 1016.6 0.0
19/09:30am 27.3 28.7 21.8 72 3.7 SE 17 19 9 10 1016.5 1016.5 0.0
19/09:00am 26.7 28.1 21.9 75 3.2 SE 17 20 9 11 1016.1 1016.1 0.0
19/08:30am 26.1 27.0 22.0 78 2.7 SE 20 22 11 12 1015.6 1015.6 0.0
19/08:00am 25.3 26.1 21.8 81 2.3 SSE 20 24 11 13 1015.2 1015.2 0.0
19/07:30am 24.8 25.8 22.1 85 1.8 SSE 20 22 11 12 1014.8 1014.8 0.0
19/07:00am 24.4 25.8 22.5 89 1.3 SE 19 20 10 11 1014.6 1014.6 0.0
19/06:30am 24.2 25.5 22.3 89 1.3 SSE 19 20 10 11 1014.3 1014.3 0.0
19/06:00am 24.3 26.3 22.9 92 0.9 SSE 17 17 9 9 1014.1 1014.1 0.0
19/05:30am 24.2 26.9 22.8 92 0.9 SSE 13 17 7 9 1013.9 1013.9 0.0
19/05:00am 24.2 26.4 22.6 91 1.1 S 15 17 8 9 1013.9 1013.9 0.0
19/04:30am 24.3 26.7 22.9 92 0.9 S 15 17 8 9 1013.9 1013.9 0.0
19/04:00am 24.4 27.5 22.8 91 1.1 SSW 11 15 6 8 1014.0 1014.0 0.0
19/03:30am 24.6 27.0 23.0 91 1.1 S 15 19 8 10 1014.1 1014.1 0.0
19/03:00am 24.7 27.8 23.5 93 0.8 SSE 13 15 7 8 1014.0 1014.0 0.0
19/02:30am 24.7 28.3 23.7 94 0.7 SE 11 13 6 7 1014.1 1014.1 0.0
19/02:00am 24.7 28.3 23.7 94 0.7 ESE 11 13 6 7 1014.3 1014.3 0.0
19/01:30am 24.8 27.6 23.6 93 0.8 ESE 15 17 8 9 1014.5 1014.5 0.0
19/01:00am 24.8 27.7 23.2 91 1.1 ESE 13 15 7 8 1014.7 1014.7 0.0
19/12:30am 24.9 27.9 23.3 91 1.1 ESE 13 15 7 8 1014.9 1014.9 0.0
19/12:00am 25.1 28.1 23.3 90 1.2 ESE 13 13 7 7 1015.1 1015.1 0.0
 
Date/Time
CST
Temp
°C
App
Temp
°C
Dew
Point
°C
Rel
Hum
%
Delta-T
°C
Wind Press
QNH
hPa
Press
MSL
hPa
Rain since
9am
mm
Dir  Spd
km/h
Gust
km/h
Spd
kts
Gust
kts
18/11:30pm 25.3 27.5 23.2 88 1.4 E 17 19 9 10 1015.4 1015.4 0.0
18/11:00pm 25.5 27.3 23.2 87 1.6 E 19 20 10 11 1015.6 1015.6 0.0
18/10:30pm 25.5 27.7 23.2 87 1.6 ENE 17 20 9 11 1015.7 1015.7 0.0
18/10:00pm 25.5 28.0 23.2 87 1.6 E 15 17 8 9 1015.6 1015.6 0.0
18/09:30pm 25.5 27.9 23.0 86 1.7 E 15 17 8 9 1015.6 1015.6 0.0
18/09:00pm 25.8 27.9 23.1 85 1.8 E 17 20 9 11 1015.7 1015.7 0.0
18/08:30pm 25.7 27.9 23.2 86 1.7 ESE 17 19 9 10 1015.7 1015.7 0.0
18/08:00pm 25.7 28.8 23.6 88 1.4 ESE 13 15 7 8 1015.5 1015.5 0.0
18/07:30pm 25.7 28.7 23.4 87 1.6 ESE 13 15 7 8 1015.1 1015.1 0.0
18/07:00pm 25.8 28.5 23.5 87 1.6 ESE 15 17 8 9 1014.8 1014.8 0.0
18/06:30pm 25.9 27.8 23.4 86 1.7 ESE 19 22 10 12 1014.5 1014.5 0.0
18/06:00pm 26.2 28.0 23.3 84 2.0 ESE 19 20 10 11 1014.2 1014.2 0.0
18/05:30pm 26.6 28.4 23.3 82 2.3 ESE 19 22 10 12 1013.9 1013.9 0.0
18/05:00pm 27.4 29.8 23.6 80 2.6 ESE 17 20 9 11 1013.4 1013.4 0.0
18/04:30pm 27.4 29.8 23.0 77 3.0 SE 15 17 8 9 1013.2 1013.2 0.0
18/04:00pm 28.7 30.6 22.7 70 4.1 E 17 20 9 11 1013.2 1013.2 0.0
18/03:30pm 29.1 30.7 22.8 69 4.3 E 19 22 10 12 1013.2 1013.2 0.0
18/03:00pm 29.6 31.7 23.1 68 4.5 ENE 17 20 9 11 1013.2 1013.2 0.0
18/02:30pm 29.4 32.0 22.6 67 4.6 ENE 13 17 7 9 1013.4 1013.4 0.0
18/02:00pm 29.8 32.1 22.8 66 4.8 ENE 15 20 8 11 1013.6 1013.6 0.0
18/01:30pm 29.4 30.5 22.4 66 4.7 E 20 24 11 13 1013.7 1013.7 0.0
18/01:00pm 29.1 30.4 22.6 68 4.4 E 20 28 11 15 1014.2 1014.2 0.0
18/12:30pm 29.0 28.4 22.7 69 4.3 ENE 30 39 16 21 1014.7 1014.7 0.0
18/12:00pm 30.2 31.8 22.9 65 5.0 E 19 28 10 15 1014.9 1014.9 0.0
18/11:30am 28.3 28.7 21.8 68 4.4 ESE 22 26 12 14 1015.1 1015.1 0.0
18/11:00am 28.6 28.0 21.9 67 4.5 ESE 28 30 15 16 1015.4 1015.4 0.0
18/10:30am 28.1 28.6 21.1 65 4.6 SE 20 26 11 14 1015.5 1015.5 0.0
18/10:00am 27.5 30.6 22.2 73 3.6 ESE 9 13 5 7 1015.7 1015.7 0.0
18/09:30am 26.8 29.6 21.6 73 3.5 ESE 9 11 5 6 1015.7 1015.7 0.0
18/09:00am 26.8 29.5 22.2 76 3.1 SE 11 15 6 8 1015.6 1015.6 0.0
18/08:30am 26.4 28.6 21.8 76 3.1 SE 13 13 7 7 1015.4 1015.4 0.0
18/08:00am 26.0 28.7 22.1 79 2.6 SE 11 13 6 7 1014.8 1014.8 0.0
18/07:30am 25.4 28.2 22.3 83 2.1 SE 11 13 6 7 1014.4 1014.4 0.0
18/07:00am 24.4 26.3 22.1 87 1.5 SE 15 17 8 9 1014.1 1014.1 0.0
18/06:30am 24.2 26.6 22.3 89 1.3 SE 13 15 7 8 1013.8 1013.8 0.0
18/06:00am 24.3 26.2 22.7 91 1.1 SE 17 19 9 10 1013.6 1013.6 0.0
18/05:30am 24.3 26.7 22.9 92 0.9 SE 15 17 8 9 1013.3 1013.3 0.0
18/05:00am 24.4 27.6 23.0 92 0.9 SSE 11 13 6 7 1013.2 1013.2 0.0
18/04:30am 24.4 28.0 23.0 92 0.9 S 9 9 5 5 1013.1 1013.1 0.0
18/04:00am 24.5 28.4 22.9 91 1.1 SSE 7 9 4 5 1013.0 1013.0 0.0
18/03:30am 24.5 28.6 22.9 91 1.1 SSE 6 7 3 4 1013.1 1013.1 0.0
18/03:00am 24.6 28.7 23.2 92 0.9 SSE 7 9 4 5 1013.2 1013.2 0.0
18/02:30am 24.5 29.8 23.1 92 0.9 CALM 0 0 0 0 1013.4 1013.4 0.0
18/02:00am 24.6 28.4 23.4 93 0.8 SE 9 9 5 5 1013.4 1013.4 0.0
18/01:30am 24.6 27.3 23.4 93 0.8 SE 15 17 8 9 1013.5 1013.5 0.0
18/01:00am 24.6 27.1 23.2 92 0.9 ESE 15 17 8 9 1013.8 1013.8 0.0
18/12:30am 24.7 27.8 23.5 93 0.8 ESE 13 13 7 7 1014.1 1014.1 0.0
18/12:00am 24.7 28.1 23.3 92 1.0 ESE 11 13 6 7 1014.2 1014.2 0.0
 
Date/Time
CST
Temp
°C
App
Temp
°C
Dew
Point
°C
Rel
Hum
%
Delta-T
°C
Wind Press
QNH
hPa
Press
MSL
hPa
Rain since
9am
mm
Dir  Spd
km/h
Gust
km/h
Spd
kts
Gust
kts
17/11:30pm 24.8 28.1 23.2 91 1.1 ESE 11 13 6 7 1014.5 1014.5 0.0
17/11:00pm 25.0 27.7 23.4 91 1.1 ESE 15 17 8 9 1014.7 1014.7 0.0
17/10:30pm 25.1 27.3 23.3 90 1.2 ESE 17 19 9 10 1014.7 1014.7 0.0

Other formats

Comma delimited format used in spreadsheet applications
http://www.bom.gov.au/fwo/IDD60801/IDD60801.94248.axf

JavaScript Object Notation format (JSON) in row-major order
http://www.bom.gov.au/fwo/IDD60801/IDD60801.94248.json

Data quality

Most of these data are generated automatically and are frequently updated. Quality checks on data are not normally performed. It is possible for incorrect values to appear. Refer to information at About Latest Weather Observations and please check the disclaimer before using these data.